sensor_id;sensor_type;location;lat;lon;timestamp;P1;durP1;ratioP1;P2;durP2;ratioP2
12141;SDS011;6134;59.284;18.022;2023-07-08T00:02:21;3.78;;;1.80;;
12141;SDS011;6134;59.284;18.022;2023-07-08T00:04:50;3.38;;;1.70;;
12141;SDS011;6134;59.284;18.022;2023-07-08T00:07:19;1.90;;;1.70;;
12141;SDS011;6134;59.284;18.022;2023-07-08T00:09:49;1.85;;;1.60;;
12141;SDS011;6134;59.284;18.022;2023-07-08T00:12:18;2.90;;;1.70;;
12141;SDS011;6134;59.284;18.022;2023-07-08T00:14:48;4.28;;;1.63;;
12141;SDS011;6134;59.284;18.022;2023-07-08T00:17:17;4.28;;;1.95;;
12141;SDS011;6134;59.284;18.022;2023-07-08T00:19:45;1.88;;;1.73;;
12141;SDS011;6134;59.284;18.022;2023-07-08T00:22:15;2.72;;;1.65;;
12141;SDS011;6134;59.284;18.022;2023-07-08T00:24:44;3.97;;;1.80;;
12141;SDS011;6134;59.284;18.022;2023-07-08T00:27:12;5.97;;;2.00;;
12141;SDS011;6134;59.284;18.022;2023-07-08T00:29:41;2.20;;;2.00;;
12141;SDS011;6134;59.284;18.022;2023-07-08T00:32:12;4.15;;;1.85;;
12141;SDS011;6134;59.284;18.022;2023-07-08T00:34:41;3.63;;;1.70;;
12141;SDS011;6134;59.284;18.022;2023-07-08T00:37:10;4.22;;;2.05;;
12141;SDS011;6134;59.284;18.022;2023-07-08T00:39:40;3.97;;;2.00;;
12141;SDS011;6134;59.284;18.022;2023-07-08T00:42:13;1.90;;;1.70;;
12141;SDS011;6134;59.284;18.022;2023-07-08T00:44:44;3.17;;;2.20;;
12141;SDS011;6134;59.284;18.022;2023-07-08T00:47:14;5.25;;;1.80;;
12141;SDS011;6134;59.284;18.022;2023-07-08T00:49:45;3.83;;;2.08;;
12141;SDS011;6134;59.284;18.022;2023-07-08T00:52:21;2.88;;;1.88;;
12141;SDS011;6134;59.284;18.022;2023-07-08T00:54:51;2.90;;;1.90;;
12141;SDS011;6134;59.284;18.022;2023-07-08T00:57:20;4.03;;;2.03;;
12141;SDS011;6134;59.284;18.022;2023-07-08T00:59:50;2.45;;;1.98;;
12141;SDS011;6134;59.284;18.022;2023-07-08T01:02:23;1.98;;;1.80;;
12141;SDS011;6134;59.284;18.022;2023-07-08T01:04:54;3.22;;;1.83;;
12141;SDS011;6134;59.284;18.022;2023-07-08T01:07:24;5.13;;;1.90;;
12141;SDS011;6134;59.284;18.022;2023-07-08T01:09:55;3.88;;;2.00;;
12141;SDS011;6134;59.284;18.022;2023-07-08T01:12:26;3.38;;;2.00;;
12141;SDS011;6134;59.284;18.022;2023-07-08T01:14:56;3.65;;;2.05;;
12141;SDS011;6134;59.284;18.022;2023-07-08T01:17:29;3.28;;;2.28;;
12141;SDS011;6134;59.284;18.022;2023-07-08T01:20:01;3.78;;;2.00;;
12141;SDS011;6134;59.284;18.022;2023-07-08T01:22:35;4.97;;;2.00;;
12141;SDS011;6134;59.284;18.022;2023-07-08T01:25:04;2.65;;;1.80;;
12141;SDS011;6134;59.284;18.022;2023-07-08T01:27:35;2.78;;;2.00;;
12141;SDS011;6134;59.284;18.022;2023-07-08T01:30:05;2.28;;;1.90;;
12141;SDS011;6134;59.284;18.022;2023-07-08T01:32:35;4.18;;;2.10;;
12141;SDS011;6134;59.284;18.022;2023-07-08T01:35:05;3.35;;;2.00;;
12141;SDS011;6134;59.284;18.022;2023-07-08T01:37:36;2.30;;;2.00;;
12141;SDS011;6134;59.284;18.022;2023-07-08T01:40:15;6.03;;;2.33;;
12141;SDS011;6134;59.284;18.022;2023-07-08T01:42:44;3.92;;;2.35;;
12141;SDS011;6134;59.284;18.022;2023-07-08T01:45:14;5.22;;;2.30;;
12141;SDS011;6134;59.284;18.022;2023-07-08T01:47:44;5.53;;;2.28;;
12141;SDS011;6134;59.284;18.022;2023-07-08T01:50:14;4.22;;;2.25;;
12141;SDS011;6134;59.284;18.022;2023-07-08T01:52:45;2.88;;;2.50;;
12141;SDS011;6134;59.284;18.022;2023-07-08T01:55:14;3.38;;;2.20;;
12141;SDS011;6134;59.284;18.022;2023-07-08T01:57:43;3.60;;;2.42;;
12141;SDS011;6134;59.284;18.022;2023-07-08T02:00:12;3.85;;;2.17;;
12141;SDS011;6134;59.284;18.022;2023-07-08T02:02:42;3.60;;;2.42;;
12141;SDS011;6134;59.284;18.022;2023-07-08T02:05:11;3.35;;;2.13;;
12141;SDS011;6134;59.284;18.022;2023-07-08T02:07:40;2.22;;;2.10;;
12141;SDS011;6134;59.284;18.022;2023-07-08T02:10:10;3.10;;;2.00;;
12141;SDS011;6134;59.284;18.022;2023-07-08T02:12:39;3.28;;;2.45;;
12141;SDS011;6134;59.284;18.022;2023-07-08T02:15:08;4.43;;;2.45;;
12141;SDS011;6134;59.284;18.022;2023-07-08T02:17:37;2.55;;;2.30;;
12141;SDS011;6134;59.284;18.022;2023-07-08T02:20:06;3.25;;;2.30;;
12141;SDS011;6134;59.284;18.022;2023-07-08T02:22:36;4.53;;;2.50;;
12141;SDS011;6134;59.284;18.022;2023-07-08T02:25:05;3.25;;;2.20;;
12141;SDS011;6134;59.284;18.022;2023-07-08T02:27:37;4.00;;;2.35;;
12141;SDS011;6134;59.284;18.022;2023-07-08T02:30:06;3.00;;;2.33;;
12141;SDS011;6134;59.284;18.022;2023-07-08T02:32:35;2.40;;;2.20;;
12141;SDS011;6134;59.284;18.022;2023-07-08T02:35:06;3.58;;;2.95;;
12141;SDS011;6134;59.284;18.022;2023-07-08T02:37:35;5.75;;;2.35;;
12141;SDS011;6134;59.284;18.022;2023-07-08T02:40:04;3.95;;;2.50;;
12141;SDS011;6134;59.284;18.022;2023-07-08T02:42:34;6.53;;;2.60;;
12141;SDS011;6134;59.284;18.022;2023-07-08T02:45:05;2.55;;;2.35;;
12141;SDS011;6134;59.284;18.022;2023-07-08T02:47:34;3.83;;;2.50;;
12141;SDS011;6134;59.284;18.022;2023-07-08T02:50:03;2.80;;;2.50;;
12141;SDS011;6134;59.284;18.022;2023-07-08T02:52:32;4.60;;;2.50;;
12141;SDS011;6134;59.284;18.022;2023-07-08T02:55:01;3.17;;;2.65;;
12141;SDS011;6134;59.284;18.022;2023-07-08T02:57:30;2.92;;;2.67;;
12141;SDS011;6134;59.284;18.022;2023-07-08T02:59:59;6.93;;;2.85;;
12141;SDS011;6134;59.284;18.022;2023-07-08T03:02:31;4.22;;;2.60;;
12141;SDS011;6134;59.284;18.022;2023-07-08T03:04:59;2.35;;;2.13;;
12141;SDS011;6134;59.284;18.022;2023-07-08T03:07:28;3.47;;;2.60;;
12141;SDS011;6134;59.284;18.022;2023-07-08T03:09:57;3.65;;;3.15;;
12141;SDS011;6134;59.284;18.022;2023-07-08T03:12:26;5.53;;;2.80;;
12141;SDS011;6134;59.284;18.022;2023-07-08T03:14:54;5.72;;;2.83;;
12141;SDS011;6134;59.284;18.022;2023-07-08T03:17:23;3.50;;;2.78;;
12141;SDS011;6134;59.284;18.022;2023-07-08T03:19:53;3.83;;;2.45;;
12141;SDS011;6134;59.284;18.022;2023-07-08T03:22:22;2.83;;;2.50;;
12141;SDS011;6134;59.284;18.022;2023-07-08T03:24:51;3.33;;;2.65;;
12141;SDS011;6134;59.284;18.022;2023-07-08T03:27:20;3.85;;;2.70;;
12141;SDS011;6134;59.284;18.022;2023-07-08T03:29:50;3.83;;;3.05;;
12141;SDS011;6134;59.284;18.022;2023-07-08T03:32:19;3.83;;;2.75;;
12141;SDS011;6134;59.284;18.022;2023-07-08T03:34:47;4.20;;;2.53;;
12141;SDS011;6134;59.284;18.022;2023-07-08T03:37:18;2.90;;;2.60;;
12141;SDS011;6134;59.284;18.022;2023-07-08T03:39:46;4.07;;;2.72;;
12141;SDS011;6134;59.284;18.022;2023-07-08T03:42:15;3.17;;;2.53;;
12141;SDS011;6134;59.284;18.022;2023-07-08T03:44:44;3.40;;;2.70;;
12141;SDS011;6134;59.284;18.022;2023-07-08T03:47:15;4.25;;;2.83;;
12141;SDS011;6134;59.284;18.022;2023-07-08T03:49:43;2.50;;;2.30;;
12141;SDS011;6134;59.284;18.022;2023-07-08T03:52:14;8.68;;;2.95;;
12141;SDS011;6134;59.284;18.022;2023-07-08T03:54:46;3.63;;;2.70;;
12141;SDS011;6134;59.284;18.022;2023-07-08T03:57:16;3.83;;;2.50;;
12141;SDS011;6134;59.284;18.022;2023-07-08T03:59:46;3.78;;;2.40;;
12141;SDS011;6134;59.284;18.022;2023-07-08T04:02:15;4.20;;;2.90;;
12141;SDS011;6134;59.284;18.022;2023-07-08T04:04:44;3.28;;;2.83;;
12141;SDS011;6134;59.284;18.022;2023-07-08T04:07:13;3.10;;;2.80;;
12141;SDS011;6134;59.284;18.022;2023-07-08T04:09:42;3.53;;;2.78;;
12141;SDS011;6134;59.284;18.022;2023-07-08T04:12:17;3.78;;;2.60;;
12141;SDS011;6134;59.284;18.022;2023-07-08T04:14:46;3.58;;;2.75;;
12141;SDS011;6134;59.284;18.022;2023-07-08T04:17:15;2.60;;;2.40;;
12141;SDS011;6134;59.284;18.022;2023-07-08T04:19:45;4.22;;;3.03;;
12141;SDS011;6134;59.284;18.022;2023-07-08T04:22:14;3.80;;;2.92;;
12141;SDS011;6134;59.284;18.022;2023-07-08T04:24:42;3.30;;;2.70;;
12141;SDS011;6134;59.284;18.022;2023-07-08T04:27:12;3.47;;;2.60;;
12141;SDS011;6134;59.284;18.022;2023-07-08T04:29:46;5.68;;;2.90;;
12141;SDS011;6134;59.284;18.022;2023-07-08T04:32:15;2.95;;;2.70;;
12141;SDS011;6134;59.284;18.022;2023-07-08T04:34:43;3.20;;;2.63;;
12141;SDS011;6134;59.284;18.022;2023-07-08T04:37:12;2.80;;;2.50;;
12141;SDS011;6134;59.284;18.022;2023-07-08T04:39:41;2.90;;;2.70;;
12141;SDS011;6134;59.284;18.022;2023-07-08T04:42:10;3.97;;;2.95;;
12141;SDS011;6134;59.284;18.022;2023-07-08T04:44:39;4.32;;;2.78;;
12141;SDS011;6134;59.284;18.022;2023-07-08T04:47:09;4.28;;;2.70;;
12141;SDS011;6134;59.284;18.022;2023-07-08T04:49:40;3.50;;;2.63;;
12141;SDS011;6134;59.284;18.022;2023-07-08T04:52:10;2.90;;;2.42;;
12141;SDS011;6134;59.284;18.022;2023-07-08T04:54:39;4.68;;;2.58;;
12141;SDS011;6134;59.284;18.022;2023-07-08T04:57:08;2.85;;;2.53;;
12141;SDS011;6134;59.284;18.022;2023-07-08T04:59:37;3.25;;;2.92;;
12141;SDS011;6134;59.284;18.022;2023-07-08T05:02:05;5.03;;;2.83;;
12141;SDS011;6134;59.284;18.022;2023-07-08T05:04:35;3.10;;;2.85;;
12141;SDS011;6134;59.284;18.022;2023-07-08T05:07:04;4.25;;;2.90;;
12141;SDS011;6134;59.284;18.022;2023-07-08T05:09:33;2.78;;;2.58;;
12141;SDS011;6134;59.284;18.022;2023-07-08T05:12:02;4.97;;;2.80;;
12141;SDS011;6134;59.284;18.022;2023-07-08T05:14:32;4.88;;;2.83;;
12141;SDS011;6134;59.284;18.022;2023-07-08T05:17:01;3.17;;;2.92;;
12141;SDS011;6134;59.284;18.022;2023-07-08T05:19:30;3.63;;;3.13;;
12141;SDS011;6134;59.284;18.022;2023-07-08T05:22:00;4.72;;;3.00;;
12141;SDS011;6134;59.284;18.022;2023-07-08T05:24:29;3.20;;;2.80;;
12141;SDS011;6134;59.284;18.022;2023-07-08T05:26:58;3.15;;;2.95;;
12141;SDS011;6134;59.284;18.022;2023-07-08T05:29:27;3.55;;;2.88;;
12141;SDS011;6134;59.284;18.022;2023-07-08T05:31:55;3.30;;;2.97;;
12141;SDS011;6134;59.284;18.022;2023-07-08T05:34:24;3.53;;;2.78;;
12141;SDS011;6134;59.284;18.022;2023-07-08T05:36:53;4.22;;;2.97;;
12141;SDS011;6134;59.284;18.022;2023-07-08T05:39:23;3.33;;;3.00;;
12141;SDS011;6134;59.284;18.022;2023-07-08T05:41:52;3.25;;;2.85;;
12141;SDS011;6134;59.284;18.022;2023-07-08T05:44:21;2.97;;;2.70;;
12141;SDS011;6134;59.284;18.022;2023-07-08T05:46:50;3.67;;;2.88;;
12141;SDS011;6134;59.284;18.022;2023-07-08T05:49:19;3.60;;;2.72;;
12141;SDS011;6134;59.284;18.022;2023-07-08T05:51:47;3.22;;;2.92;;
12141;SDS011;6134;59.284;18.022;2023-07-08T05:54:16;3.20;;;2.83;;
12141;SDS011;6134;59.284;18.022;2023-07-08T05:56:46;3.55;;;3.10;;
12141;SDS011;6134;59.284;18.022;2023-07-08T05:59:15;3.00;;;2.65;;
12141;SDS011;6134;59.284;18.022;2023-07-08T06:01:44;3.60;;;3.13;;
12141;SDS011;6134;59.284;18.022;2023-07-08T06:04:13;3.28;;;3.00;;
12141;SDS011;6134;59.284;18.022;2023-07-08T06:06:42;4.10;;;3.72;;
12141;SDS011;6134;59.284;18.022;2023-07-08T06:09:11;3.45;;;3.15;;
12141;SDS011;6134;59.284;18.022;2023-07-08T06:11:39;3.72;;;3.42;;
12141;SDS011;6134;59.284;18.022;2023-07-08T06:14:10;3.45;;;3.10;;
12141;SDS011;6134;59.284;18.022;2023-07-08T06:16:38;3.25;;;2.95;;
12141;SDS011;6134;59.284;18.022;2023-07-08T06:19:09;3.22;;;2.70;;
12141;SDS011;6134;59.284;18.022;2023-07-08T06:21:38;3.53;;;2.70;;
12141;SDS011;6134;59.284;18.022;2023-07-08T06:24:07;4.18;;;3.17;;
12141;SDS011;6134;59.284;18.022;2023-07-08T06:26:36;4.03;;;2.90;;
12141;SDS011;6134;59.284;18.022;2023-07-08T06:29:04;4.10;;;3.03;;
12141;SDS011;6134;59.284;18.022;2023-07-08T06:31:35;3.00;;;2.75;;
12141;SDS011;6134;59.284;18.022;2023-07-08T06:34:03;3.60;;;3.30;;
12141;SDS011;6134;59.284;18.022;2023-07-08T06:36:32;4.38;;;3.25;;
12141;SDS011;6134;59.284;18.022;2023-07-08T06:39:01;3.63;;;2.97;;
12141;SDS011;6134;59.284;18.022;2023-07-08T06:41:34;4.10;;;3.03;;
12141;SDS011;6134;59.284;18.022;2023-07-08T06:44:02;3.78;;;3.47;;
12141;SDS011;6134;59.284;18.022;2023-07-08T06:46:31;3.65;;;3.33;;
12141;SDS011;6134;59.284;18.022;2023-07-08T06:49:02;3.63;;;2.90;;
12141;SDS011;6134;59.284;18.022;2023-07-08T06:51:35;3.28;;;2.97;;
12141;SDS011;6134;59.284;18.022;2023-07-08T06:54:04;3.55;;;3.25;;
12141;SDS011;6134;59.284;18.022;2023-07-08T06:56:38;3.97;;;3.20;;
12141;SDS011;6134;59.284;18.022;2023-07-08T06:59:07;3.40;;;3.08;;
12141;SDS011;6134;59.284;18.022;2023-07-08T07:01:36;3.33;;;3.03;;
12141;SDS011;6134;59.284;18.022;2023-07-08T07:04:06;5.63;;;3.00;;
12141;SDS011;6134;59.284;18.022;2023-07-08T07:06:35;3.45;;;3.15;;
12141;SDS011;6134;59.284;18.022;2023-07-08T07:09:04;3.30;;;3.00;;
12141;SDS011;6134;59.284;18.022;2023-07-08T07:11:33;4.78;;;3.22;;
12141;SDS011;6134;59.284;18.022;2023-07-08T07:14:02;3.30;;;2.92;;
12141;SDS011;6134;59.284;18.022;2023-07-08T07:16:51;3.75;;;3.45;;
12141;SDS011;6134;59.284;18.022;2023-07-08T07:19:35;3.33;;;3.03;;
12141;SDS011;6134;59.284;18.022;2023-07-08T07:22:04;3.47;;;3.00;;
12141;SDS011;6134;59.284;18.022;2023-07-08T07:24:33;4.18;;;3.70;;
12141;SDS011;6134;59.284;18.022;2023-07-08T07:27:02;5.93;;;3.67;;
12141;SDS011;6134;59.284;18.022;2023-07-08T07:29:38;3.35;;;3.05;;
12141;SDS011;6134;59.284;18.022;2023-07-08T07:32:07;3.67;;;3.38;;
12141;SDS011;6134;59.284;18.022;2023-07-08T07:34:38;3.20;;;2.90;;
12141;SDS011;6134;59.284;18.022;2023-07-08T07:37:08;4.65;;;2.97;;
12141;SDS011;6134;59.284;18.022;2023-07-08T07:39:39;3.45;;;3.17;;
12141;SDS011;6134;59.284;18.022;2023-07-08T07:42:08;4.60;;;3.10;;
12141;SDS011;6134;59.284;18.022;2023-07-08T07:44:37;4.22;;;2.97;;
12141;SDS011;6134;59.284;18.022;2023-07-08T07:47:06;3.53;;;3.03;;
12141;SDS011;6134;59.284;18.022;2023-07-08T07:49:35;5.28;;;2.95;;
12141;SDS011;6134;59.284;18.022;2023-07-08T07:52:06;3.35;;;3.05;;
12141;SDS011;6134;59.284;18.022;2023-07-08T07:54:37;3.65;;;2.97;;
12141;SDS011;6134;59.284;18.022;2023-07-08T07:57:06;3.75;;;3.22;;
12141;SDS011;6134;59.284;18.022;2023-07-08T07:59:35;3.47;;;3.25;;
12141;SDS011;6134;59.284;18.022;2023-07-08T08:02:05;3.63;;;3.30;;
12141;SDS011;6134;59.284;18.022;2023-07-08T08:04:34;3.50;;;3.20;;
12141;SDS011;6134;59.284;18.022;2023-07-08T08:07:03;4.38;;;3.55;;
12141;SDS011;6134;59.284;18.022;2023-07-08T08:09:33;3.83;;;3.40;;
12141;SDS011;6134;59.284;18.022;2023-07-08T08:12:02;6.80;;;3.65;;
12141;SDS011;6134;59.284;18.022;2023-07-08T08:14:31;6.00;;;3.47;;
12141;SDS011;6134;59.284;18.022;2023-07-08T08:17:00;3.47;;;3.17;;
12141;SDS011;6134;59.284;18.022;2023-07-08T08:19:29;3.80;;;3.50;;
12141;SDS011;6134;59.284;18.022;2023-07-08T08:21:57;3.72;;;3.30;;
12141;SDS011;6134;59.284;18.022;2023-07-08T08:24:26;5.45;;;3.20;;
12141;SDS011;6134;59.284;18.022;2023-07-08T08:26:56;3.80;;;3.50;;
12141;SDS011;6134;59.284;18.022;2023-07-08T08:29:26;3.25;;;2.95;;
12141;SDS011;6134;59.284;18.022;2023-07-08T08:31:54;3.75;;;3.03;;
12141;SDS011;6134;59.284;18.022;2023-07-08T08:34:23;3.55;;;3.25;;
12141;SDS011;6134;59.284;18.022;2023-07-08T08:36:52;4.28;;;3.25;;
12141;SDS011;6134;59.284;18.022;2023-07-08T08:39:22;3.42;;;3.15;;
12141;SDS011;6134;59.284;18.022;2023-07-08T08:41:52;4.55;;;3.08;;
12141;SDS011;6134;59.284;18.022;2023-07-08T08:44:25;4.70;;;3.80;;
12141;SDS011;6134;59.284;18.022;2023-07-08T08:46:57;3.20;;;2.90;;
12141;SDS011;6134;59.284;18.022;2023-07-08T08:49:30;7.18;;;3.67;;
12141;SDS011;6134;59.284;18.022;2023-07-08T08:52:00;3.30;;;3.00;;
12141;SDS011;6134;59.284;18.022;2023-07-08T08:54:29;3.40;;;3.10;;
12141;SDS011;6134;59.284;18.022;2023-07-08T08:56:59;3.85;;;3.28;;
12141;SDS011;6134;59.284;18.022;2023-07-08T08:59:35;3.25;;;2.95;;
12141;SDS011;6134;59.284;18.022;2023-07-08T09:02:13;3.17;;;2.90;;
12141;SDS011;6134;59.284;18.022;2023-07-08T09:04:45;3.45;;;3.15;;
12141;SDS011;6134;59.284;18.022;2023-07-08T09:07:16;3.70;;;3.40;;
12141;SDS011;6134;59.284;18.022;2023-07-08T09:09:46;3.60;;;3.30;;
12141;SDS011;6134;59.284;18.022;2023-07-08T09:12:16;3.80;;;3.40;;
12141;SDS011;6134;59.284;18.022;2023-07-08T09:14:48;3.65;;;3.33;;
12141;SDS011;6134;59.284;18.022;2023-07-08T09:17:19;3.80;;;3.08;;
12141;SDS011;6134;59.284;18.022;2023-07-08T09:19:52;3.20;;;2.88;;
12141;SDS011;6134;59.284;18.022;2023-07-08T09:22:25;3.63;;;3.30;;
12141;SDS011;6134;59.284;18.022;2023-07-08T09:24:59;3.70;;;3.28;;
12141;SDS011;6134;59.284;18.022;2023-07-08T09:27:30;3.60;;;2.90;;
12141;SDS011;6134;59.284;18.022;2023-07-08T09:30:00;3.05;;;2.72;;
12141;SDS011;6134;59.284;18.022;2023-07-08T09:32:29;3.47;;;3.17;;
12141;SDS011;6134;59.284;18.022;2023-07-08T09:35:02;4.55;;;3.03;;
12141;SDS011;6134;59.284;18.022;2023-07-08T09:37:32;5.22;;;3.83;;
12141;SDS011;6134;59.284;18.022;2023-07-08T09:40:03;2.88;;;2.67;;
12141;SDS011;6134;59.284;18.022;2023-07-08T09:42:33;3.92;;;3.22;;
12141;SDS011;6134;59.284;18.022;2023-07-08T09:45:13;3.10;;;2.85;;
12141;SDS011;6134;59.284;18.022;2023-07-08T09:47:43;3.65;;;3.35;;
12141;SDS011;6134;59.284;18.022;2023-07-08T09:50:16;3.90;;;3.33;;
12141;SDS011;6134;59.284;18.022;2023-07-08T09:52:45;3.33;;;3.00;;
12141;SDS011;6134;59.284;18.022;2023-07-08T09:55:15;3.40;;;3.10;;
12141;SDS011;6134;59.284;18.022;2023-07-08T09:57:44;3.40;;;3.10;;
12141;SDS011;6134;59.284;18.022;2023-07-08T10:00:16;4.38;;;3.03;;
12141;SDS011;6134;59.284;18.022;2023-07-08T10:02:46;5.60;;;3.13;;
12141;SDS011;6134;59.284;18.022;2023-07-08T10:05:18;3.70;;;3.00;;
12141;SDS011;6134;59.284;18.022;2023-07-08T10:07:47;3.50;;;2.78;;
12141;SDS011;6134;59.284;18.022;2023-07-08T10:10:19;2.92;;;2.70;;
12141;SDS011;6134;59.284;18.022;2023-07-08T10:12:53;3.20;;;2.90;;
12141;SDS011;6134;59.284;18.022;2023-07-08T10:15:26;3.40;;;3.10;;
12141;SDS011;6134;59.284;18.022;2023-07-08T10:17:56;3.42;;;3.10;;
12141;SDS011;6134;59.284;18.022;2023-07-08T10:20:25;3.10;;;2.80;;
12141;SDS011;6134;59.284;18.022;2023-07-08T10:23:00;3.35;;;3.05;;
12141;SDS011;6134;59.284;18.022;2023-07-08T10:25:32;4.03;;;2.75;;
12141;SDS011;6134;59.284;18.022;2023-07-08T10:28:07;2.95;;;2.75;;
12141;SDS011;6134;59.284;18.022;2023-07-08T10:30:43;3.30;;;3.00;;
12141;SDS011;6134;59.284;18.022;2023-07-08T10:33:20;3.80;;;2.88;;
12141;SDS011;6134;59.284;18.022;2023-07-08T10:35:58;4.57;;;2.80;;
12141;SDS011;6134;59.284;18.022;2023-07-08T10:38:35;3.58;;;2.92;;
12141;SDS011;6134;59.284;18.022;2023-07-08T10:41:10;3.45;;;3.15;;
12141;SDS011;6134;59.284;18.022;2023-07-08T10:43:43;3.10;;;2.80;;
12141;SDS011;6134;59.284;18.022;2023-07-08T10:46:26;4.20;;;2.80;;
12141;SDS011;6134;59.284;18.022;2023-07-08T10:51:45;2.63;;;2.42;;
12141;SDS011;6134;59.284;18.022;2023-07-08T10:57:00;3.17;;;2.75;;
12141;SDS011;6134;59.284;18.022;2023-07-08T10:59:37;2.90;;;2.70;;
12141;SDS011;6134;59.284;18.022;2023-07-08T11:02:17;3.33;;;3.03;;
12141;SDS011;6134;59.284;18.022;2023-07-08T11:04:54;3.42;;;2.78;;
12141;SDS011;6134;59.284;18.022;2023-07-08T11:07:30;3.17;;;2.92;;
12141;SDS011;6134;59.284;18.022;2023-07-08T11:10:02;3.00;;;2.72;;
12141;SDS011;6134;59.284;18.022;2023-07-08T11:12:34;3.13;;;2.80;;
12141;SDS011;6134;59.284;18.022;2023-07-08T11:15:05;3.42;;;3.08;;
12141;SDS011;6134;59.284;18.022;2023-07-08T11:17:38;3.33;;;2.85;;
12141;SDS011;6134;59.284;18.022;2023-07-08T11:20:12;4.07;;;3.00;;
12141;SDS011;6134;59.284;18.022;2023-07-08T11:22:44;3.50;;;3.00;;
12141;SDS011;6134;59.284;18.022;2023-07-08T11:27:43;3.65;;;3.08;;
12141;SDS011;6134;59.284;18.022;2023-07-08T11:30:16;3.00;;;2.72;;
12141;SDS011;6134;59.284;18.022;2023-07-08T11:32:48;4.30;;;2.78;;
12141;SDS011;6134;59.284;18.022;2023-07-08T11:35:25;2.80;;;2.60;;
12141;SDS011;6134;59.284;18.022;2023-07-08T11:37:54;4.07;;;3.03;;
12141;SDS011;6134;59.284;18.022;2023-07-08T11:40:23;5.00;;;2.72;;
12141;SDS011;6134;59.284;18.022;2023-07-08T11:42:52;3.95;;;2.63;;
12141;SDS011;6134;59.284;18.022;2023-07-08T11:45:27;4.90;;;3.15;;
12141;SDS011;6134;59.284;18.022;2023-07-08T11:48:04;3.17;;;2.80;;
12141;SDS011;6134;59.284;18.022;2023-07-08T11:50:35;2.95;;;2.72;;
12141;SDS011;6134;59.284;18.022;2023-07-08T11:53:06;4.55;;;3.20;;
12141;SDS011;6134;59.284;18.022;2023-07-08T11:55:36;3.33;;;2.92;;
12141;SDS011;6134;59.284;18.022;2023-07-08T11:58:13;4.25;;;3.10;;
12141;SDS011;6134;59.284;18.022;2023-07-08T12:00:51;3.35;;;3.05;;
12141;SDS011;6134;59.284;18.022;2023-07-08T12:03:23;3.30;;;3.00;;
12141;SDS011;6134;59.284;18.022;2023-07-08T12:05:56;2.70;;;2.50;;
12141;SDS011;6134;59.284;18.022;2023-07-08T12:08:32;5.50;;;2.97;;
12141;SDS011;6134;59.284;18.022;2023-07-08T12:11:03;3.63;;;2.97;;
12141;SDS011;6134;59.284;18.022;2023-07-08T12:13:31;3.40;;;2.85;;
12141;SDS011;6134;59.284;18.022;2023-07-08T12:16:02;4.03;;;3.10;;
12141;SDS011;6134;59.284;18.022;2023-07-08T12:18:34;4.05;;;3.13;;
12141;SDS011;6134;59.284;18.022;2023-07-08T12:21:04;4.70;;;3.00;;
12141;SDS011;6134;59.284;18.022;2023-07-08T12:23:33;4.15;;;2.78;;
12141;SDS011;6134;59.284;18.022;2023-07-08T12:26:01;3.63;;;2.88;;
12141;SDS011;6134;59.284;18.022;2023-07-08T12:28:31;3.35;;;3.05;;
12141;SDS011;6134;59.284;18.022;2023-07-08T12:31:00;3.00;;;2.80;;
12141;SDS011;6134;59.284;18.022;2023-07-08T12:33:30;4.55;;;2.78;;
12141;SDS011;6134;59.284;18.022;2023-07-08T12:36:02;3.40;;;2.50;;
12141;SDS011;6134;59.284;18.022;2023-07-08T12:38:32;2.88;;;2.58;;
12141;SDS011;6134;59.284;18.022;2023-07-08T12:41:07;3.10;;;2.90;;
12141;SDS011;6134;59.284;18.022;2023-07-08T12:43:37;3.20;;;2.90;;
12141;SDS011;6134;59.284;18.022;2023-07-08T12:46:07;3.78;;;3.08;;
12141;SDS011;6134;59.284;18.022;2023-07-08T12:48:37;2.78;;;2.53;;
12141;SDS011;6134;59.284;18.022;2023-07-08T12:51:10;3.28;;;2.97;;
12141;SDS011;6134;59.284;18.022;2023-07-08T12:53:39;3.10;;;2.88;;
12141;SDS011;6134;59.284;18.022;2023-07-08T12:56:08;3.15;;;2.92;;
12141;SDS011;6134;59.284;18.022;2023-07-08T12:58:38;3.60;;;3.30;;
12141;SDS011;6134;59.284;18.022;2023-07-08T13:01:08;3.38;;;3.08;;
12141;SDS011;6134;59.284;18.022;2023-07-08T13:03:37;3.50;;;3.20;;
12141;SDS011;6134;59.284;18.022;2023-07-08T13:06:11;4.65;;;3.10;;
12141;SDS011;6134;59.284;18.022;2023-07-08T13:08:41;3.53;;;2.75;;
12141;SDS011;6134;59.284;18.022;2023-07-08T13:11:11;3.50;;;3.17;;
12141;SDS011;6134;59.284;18.022;2023-07-08T13:13:44;3.00;;;2.80;;
12141;SDS011;6134;59.284;18.022;2023-07-08T13:16:15;2.83;;;2.63;;
12141;SDS011;6134;59.284;18.022;2023-07-08T13:18:44;2.95;;;2.65;;
12141;SDS011;6134;59.284;18.022;2023-07-08T13:21:15;4.20;;;2.83;;
12141;SDS011;6134;59.284;18.022;2023-07-08T13:23:44;4.45;;;2.70;;
12141;SDS011;6134;59.284;18.022;2023-07-08T13:26:14;3.45;;;2.53;;
12141;SDS011;6134;59.284;18.022;2023-07-08T13:28:43;4.55;;;2.95;;
12141;SDS011;6134;59.284;18.022;2023-07-08T13:31:14;4.22;;;2.70;;
12141;SDS011;6134;59.284;18.022;2023-07-08T13:33:48;2.80;;;2.60;;
12141;SDS011;6134;59.284;18.022;2023-07-08T13:36:19;2.67;;;2.47;;
12141;SDS011;6134;59.284;18.022;2023-07-08T13:38:49;3.20;;;2.90;;
12141;SDS011;6134;59.284;18.022;2023-07-08T13:41:19;3.90;;;2.67;;
12141;SDS011;6134;59.284;18.022;2023-07-08T13:43:49;4.35;;;2.85;;
12141;SDS011;6134;59.284;18.022;2023-07-08T13:46:33;2.75;;;2.55;;
12141;SDS011;6134;59.284;18.022;2023-07-08T13:49:02;3.17;;;2.97;;
12141;SDS011;6134;59.284;18.022;2023-07-08T13:51:33;2.92;;;2.45;;
12141;SDS011;6134;59.284;18.022;2023-07-08T13:54:08;3.05;;;2.80;;
12141;SDS011;6134;59.284;18.022;2023-07-08T13:56:37;3.20;;;2.85;;
12141;SDS011;6134;59.284;18.022;2023-07-08T13:59:09;3.22;;;2.92;;
12141;SDS011;6134;59.284;18.022;2023-07-08T14:01:39;3.40;;;2.38;;
12141;SDS011;6134;59.284;18.022;2023-07-08T14:04:09;2.55;;;2.35;;
12141;SDS011;6134;59.284;18.022;2023-07-08T14:06:40;4.20;;;2.58;;
12141;SDS011;6134;59.284;18.022;2023-07-08T14:09:11;2.78;;;2.58;;
12141;SDS011;6134;59.284;18.022;2023-07-08T14:11:40;2.90;;;2.60;;
12141;SDS011;6134;59.284;18.022;2023-07-08T14:14:09;3.92;;;2.83;;
12141;SDS011;6134;59.284;18.022;2023-07-08T14:16:39;2.65;;;2.40;;
12141;SDS011;6134;59.284;18.022;2023-07-08T14:19:11;2.65;;;2.45;;
12141;SDS011;6134;59.284;18.022;2023-07-08T14:21:42;4.75;;;2.70;;
12141;SDS011;6134;59.284;18.022;2023-07-08T14:24:12;2.50;;;2.30;;
12141;SDS011;6134;59.284;18.022;2023-07-08T14:26:42;2.40;;;2.22;;
12141;SDS011;6134;59.284;18.022;2023-07-08T14:29:11;2.72;;;2.53;;
12141;SDS011;6134;59.284;18.022;2023-07-08T14:31:40;2.50;;;2.30;;
12141;SDS011;6134;59.284;18.022;2023-07-08T14:34:11;4.05;;;2.22;;
12141;SDS011;6134;59.284;18.022;2023-07-08T14:36:40;2.50;;;2.30;;
12141;SDS011;6134;59.284;18.022;2023-07-08T14:39:12;3.70;;;2.30;;
12141;SDS011;6134;59.284;18.022;2023-07-08T14:41:41;3.90;;;2.60;;
12141;SDS011;6134;59.284;18.022;2023-07-08T14:44:18;2.97;;;2.25;;
12141;SDS011;6134;59.284;18.022;2023-07-08T14:46:48;3.88;;;2.35;;
12141;SDS011;6134;59.284;18.022;2023-07-08T14:49:18;1.98;;;1.80;;
12141;SDS011;6134;59.284;18.022;2023-07-08T14:51:47;3.13;;;2.00;;
12141;SDS011;6134;59.284;18.022;2023-07-08T14:54:18;2.47;;;1.98;;
12141;SDS011;6134;59.284;18.022;2023-07-08T14:56:46;2.22;;;1.92;;
12141;SDS011;6134;59.284;18.022;2023-07-08T14:59:17;2.90;;;2.17;;
12141;SDS011;6134;59.284;18.022;2023-07-08T15:01:46;3.90;;;2.15;;
12141;SDS011;6134;59.284;18.022;2023-07-08T15:04:15;2.40;;;2.20;;
12141;SDS011;6134;59.284;18.022;2023-07-08T15:06:45;2.08;;;1.98;;
12141;SDS011;6134;59.284;18.022;2023-07-08T15:09:13;2.60;;;2.13;;
12141;SDS011;6134;59.284;18.022;2023-07-08T15:11:45;2.55;;;2.20;;
12141;SDS011;6134;59.284;18.022;2023-07-08T15:14:16;2.55;;;2.20;;
12141;SDS011;6134;59.284;18.022;2023-07-08T15:16:46;2.85;;;2.13;;